createdAt,value
2022-12-12T00:02:17.849Z,9.70
2022-12-12T00:04:46.353Z,7.83
2022-12-12T00:07:14.756Z,8.43
2022-12-12T00:09:43.216Z,8.53
2022-12-12T00:12:11.638Z,10.03
2022-12-12T00:14:40.103Z,8.37
2022-12-12T00:17:08.585Z,5.67
2022-12-12T00:19:38.337Z,11.63
2022-12-12T00:22:06.714Z,14.10
2022-12-12T00:24:35.104Z,11.30
2022-12-12T00:27:03.833Z,6.83
2022-12-12T00:29:32.293Z,9.50
2022-12-12T00:32:00.718Z,9.37
2022-12-12T00:34:29.149Z,9.67
2022-12-12T00:36:58.927Z,11.17
2022-12-12T00:39:27.296Z,14.10
2022-12-12T00:41:55.690Z,14.10
2022-12-12T00:44:24.092Z,13.10
2022-12-12T00:46:52.553Z,10.30
2022-12-12T00:49:21.021Z,11.40
2022-12-12T00:51:49.484Z,10.20
2022-12-12T00:54:19.313Z,15.53
2022-12-12T00:56:47.686Z,13.50
2022-12-12T00:59:16.075Z,6.63
2022-12-12T01:01:46.832Z,4.37
2022-12-12T01:04:15.307Z,5.37
2022-12-12T01:06:43.724Z,4.60
2022-12-12T01:09:12.138Z,7.47
2022-12-12T01:11:41.935Z,6.23
2022-12-12T01:14:10.351Z,5.83
2022-12-12T01:16:38.791Z,8.27
2022-12-12T01:19:07.169Z,6.40
2022-12-12T01:21:35.631Z,5.83
2022-12-12T01:24:04.030Z,7.33
2022-12-12T01:26:32.421Z,5.73
2022-12-12T01:29:02.177Z,8.00
2022-12-12T01:31:30.581Z,6.90
2022-12-12T01:33:59.084Z,7.90
2022-12-12T01:36:27.529Z,7.00
2022-12-12T01:38:57.476Z,5.10
2022-12-12T01:41:26.176Z,8.57
2022-12-12T01:43:54.937Z,7.30
2022-12-12T01:46:41.187Z,6.37
2022-12-12T01:49:13.421Z,7.73
2022-12-12T01:51:42.447Z,5.90
2022-12-12T01:54:12.820Z,7.40
2022-12-12T01:56:41.801Z,6.97
2022-12-12T01:59:12.866Z,6.03
2022-12-12T02:01:42.950Z,7.93
2022-12-12T02:04:11.945Z,7.00
2022-12-12T02:06:40.806Z,7.20
2022-12-12T02:09:10.492Z,9.50
2022-12-12T02:11:43.258Z,8.07
2022-12-12T02:14:11.728Z,8.47
2022-12-12T02:16:52.290Z,7.93
2022-12-12T02:19:33.069Z,6.57
2022-12-12T02:22:04.969Z,6.57
2022-12-12T02:25:03.463Z,6.33
2022-12-12T02:27:42.738Z,6.53
2022-12-12T02:30:14.546Z,7.03
2022-12-12T02:32:52.446Z,7.43
2022-12-12T02:35:22.857Z,7.40
2022-12-12T02:37:53.355Z,6.87
2022-12-12T02:40:24.764Z,6.10
2022-12-12T02:42:57.596Z,6.70
2022-12-12T02:45:32.043Z,8.97
2022-12-12T02:48:05.617Z,7.80
2022-12-12T02:50:34.918Z,6.13
2022-12-12T02:53:03.275Z,6.17
2022-12-12T02:55:36.246Z,6.17
2022-12-12T02:58:06.852Z,5.77
2022-12-12T03:00:40.653Z,5.73
2022-12-12T03:03:56.518Z,5.27
2022-12-12T03:06:50.859Z,7.47
2022-12-12T03:09:25.150Z,6.60
2022-12-12T03:12:01.278Z,6.63
2022-12-12T03:14:35.919Z,4.67
2022-12-12T03:17:08.501Z,4.77
2022-12-12T03:19:41.715Z,8.03
2022-12-12T03:22:13.409Z,4.47
2022-12-12T03:24:45.897Z,4.90
2022-12-12T03:27:16.321Z,4.77
2022-12-12T03:29:46.587Z,4.67
2022-12-12T03:32:17.180Z,4.90
2022-12-12T03:34:49.440Z,4.40
2022-12-12T03:37:21.215Z,4.77
2022-12-12T03:39:51.854Z,5.53
2022-12-12T03:42:23.215Z,6.43
2022-12-12T03:44:53.298Z,9.70
2022-12-12T03:47:24.809Z,20.50
2022-12-12T03:49:56.620Z,19.57
2022-12-12T03:52:26.982Z,15.57
2022-12-12T03:54:57.502Z,11.13
2022-12-12T03:57:29.107Z,11.63
2022-12-12T04:00:00.982Z,13.70
2022-12-12T04:02:32.470Z,11.47
2022-12-12T04:05:05.366Z,7.37
2022-12-12T04:07:35.430Z,5.47
2022-12-12T04:10:20.786Z,5.90
2022-12-12T04:13:03.407Z,5.73
2022-12-12T04:15:47.363Z,5.07
2022-12-12T04:18:18.118Z,4.20
2022-12-12T04:21:07.752Z,5.33
2022-12-12T04:23:38.425Z,5.33
2022-12-12T04:26:27.614Z,4.83
2022-12-12T04:29:03.847Z,4.73
2022-12-12T04:31:33.408Z,6.00
2022-12-12T04:34:04.373Z,5.50
2022-12-12T04:36:35.594Z,9.50
2022-12-12T04:39:05.459Z,7.50
2022-12-12T04:41:34.344Z,8.60
2022-12-12T04:44:03.839Z,5.97
2022-12-12T04:46:33.367Z,6.27
2022-12-12T04:49:04.724Z,5.93
2022-12-12T04:51:35.434Z,5.63
2022-12-12T04:54:06.969Z,5.20
2022-12-12T04:56:36.163Z,3.73
2022-12-12T04:59:04.804Z,5.97
2022-12-12T05:01:37.263Z,6.13
2022-12-12T05:04:09.690Z,5.63
2022-12-12T05:06:42.444Z,6.03
2022-12-12T05:09:11.839Z,90.43
2022-12-12T05:11:40.284Z,12.57
2022-12-12T05:14:10.016Z,6.23
2022-12-12T05:16:40.178Z,6.33
2022-12-12T05:19:08.618Z,6.80
2022-12-12T05:21:37.001Z,8.10
2022-12-12T05:24:07.277Z,9.03
2022-12-12T05:26:36.025Z,9.43
2022-12-12T05:29:07.478Z,11.37
2022-12-12T05:31:36.277Z,9.33
2022-12-12T05:34:04.820Z,11.00
2022-12-12T05:36:33.209Z,13.13
2022-12-12T05:39:01.657Z,10.97
2022-12-12T05:41:31.449Z,10.03
2022-12-12T05:43:59.849Z,11.30
2022-12-12T05:46:28.328Z,11.50
2022-12-12T05:48:56.905Z,11.10
2022-12-12T05:51:25.345Z,11.10
2022-12-12T05:53:53.784Z,14.60
2022-12-12T05:56:22.281Z,11.57
2022-12-12T05:58:52.079Z,13.53
2022-12-12T06:01:20.506Z,13.07
2022-12-12T06:03:49.110Z,13.20
2022-12-12T06:06:17.548Z,12.63
2022-12-12T06:08:45.953Z,17.23
2022-12-12T06:11:14.421Z,13.33
2022-12-12T06:13:42.825Z,17.10
2022-12-12T06:16:14.651Z,25.57
2022-12-12T06:18:43.139Z,37.70
2022-12-12T06:21:12.522Z,14.40
2022-12-12T06:23:41.754Z,13.37
2022-12-12T06:26:11.442Z,13.17
2022-12-12T06:28:39.985Z,10.30
2022-12-12T06:31:11.901Z,10.07
2022-12-12T06:33:42.614Z,9.90
2022-12-12T06:36:12.814Z,13.53
2022-12-12T06:38:41.263Z,21.13
2022-12-12T06:41:10.149Z,13.37
2022-12-12T06:43:38.638Z,13.90
2022-12-12T06:46:08.061Z,17.53
2022-12-12T06:48:36.858Z,15.73
2022-12-12T06:51:09.088Z,15.17
2022-12-12T06:53:37.795Z,13.27
2022-12-12T06:56:07.715Z,15.33
2022-12-12T06:58:36.177Z,13.10
2022-12-12T07:01:04.590Z,6.67
2022-12-12T07:03:33.064Z,7.37
2022-12-12T07:06:01.583Z,4.97
2022-12-12T07:08:31.428Z,5.50
2022-12-12T07:11:04.521Z,4.27
2022-12-12T07:13:33.088Z,5.37
2022-12-12T07:16:01.568Z,5.77
2022-12-12T07:18:30.133Z,7.47
2022-12-12T07:20:58.607Z,7.43
2022-12-12T07:23:27.362Z,6.97
2022-12-12T07:25:57.126Z,7.70
2022-12-12T07:28:25.564Z,8.33
2022-12-12T07:30:54.124Z,7.73
2022-12-12T07:33:22.678Z,6.57
2022-12-12T07:35:51.099Z,7.20
2022-12-12T07:38:19.585Z,7.43
2022-12-12T07:40:47.937Z,7.90
2022-12-12T07:43:17.688Z,6.20
2022-12-12T07:45:46.127Z,8.03
2022-12-12T07:48:14.902Z,7.60
2022-12-12T07:50:44.281Z,8.50
2022-12-12T07:53:12.625Z,9.57
2022-12-12T07:55:41.882Z,9.20
2022-12-12T07:58:10.300Z,11.17
2022-12-12T08:00:40.101Z,10.37
2022-12-12T08:03:08.534Z,11.57
2022-12-12T08:05:36.907Z,10.40
2022-12-12T08:08:05.392Z,13.70
2022-12-12T08:10:33.935Z,12.83
2022-12-12T08:13:02.358Z,11.23
2022-12-12T08:15:30.774Z,9.33
2022-12-12T08:18:00.625Z,8.00
2022-12-12T08:20:29.076Z,11.50
2022-12-12T08:22:57.488Z,10.00
2022-12-12T08:25:25.937Z,8.23
2022-12-12T08:27:54.405Z,8.83
2022-12-12T08:30:22.991Z,8.00
2022-12-12T08:32:51.387Z,6.63
2022-12-12T08:35:21.267Z,7.63
2022-12-12T08:37:49.642Z,7.17
2022-12-12T08:40:18.207Z,130.90
2022-12-12T08:42:46.611Z,14.73
2022-12-12T08:45:15.390Z,8.27
2022-12-12T08:47:43.905Z,10.30
2022-12-12T08:50:13.165Z,8.13
2022-12-12T08:52:42.930Z,7.77
2022-12-12T08:55:11.795Z,7.63
2022-12-12T08:57:40.529Z,8.33
2022-12-12T09:00:09.488Z,9.17
2022-12-12T09:02:38.074Z,11.30
2022-12-12T09:05:06.957Z,9.50
2022-12-12T09:07:35.343Z,10.57
2022-12-12T09:10:06.408Z,8.47
2022-12-12T09:12:39.946Z,10.37
2022-12-12T09:15:10.622Z,9.63
2022-12-12T09:17:39.315Z,10.27
2022-12-12T09:20:08.214Z,11.17
2022-12-12T09:22:36.658Z,10.50
2022-12-12T09:25:06.830Z,9.30
2022-12-12T09:27:35.271Z,9.50
2022-12-12T09:30:03.704Z,11.27
2022-12-12T09:32:32.085Z,9.43
2022-12-12T09:35:00.456Z,12.57
2022-12-12T09:37:29.490Z,12.60
2022-12-12T09:39:58.158Z,13.37
2022-12-12T09:42:29.495Z,12.10
2022-12-12T09:45:00.428Z,11.57
2022-12-12T09:47:33.787Z,12.40
2022-12-12T09:50:04.078Z,11.63
2022-12-12T09:52:34.111Z,11.97
2022-12-12T09:55:02.966Z,15.40
2022-12-12T09:57:35.343Z,10.80
2022-12-12T10:00:08.054Z,13.03
2022-12-12T10:02:43.274Z,13.47
2022-12-12T10:05:18.847Z,14.40
2022-12-12T10:07:49.164Z,13.97
2022-12-12T10:10:23.292Z,16.10
2022-12-12T10:12:54.590Z,13.40
2022-12-12T10:15:27.285Z,12.13
2022-12-12T10:17:57.332Z,15.50
2022-12-12T10:20:26.936Z,13.17
2022-12-12T10:22:58.401Z,13.13
2022-12-12T10:25:30.516Z,12.80
2022-12-12T10:28:06.684Z,17.10
2022-12-12T10:30:36.374Z,13.27
2022-12-12T10:33:13.763Z,17.07
2022-12-12T10:35:46.232Z,14.30
2022-12-12T10:38:22.030Z,16.10
2022-12-12T10:40:55.012Z,14.00
2022-12-12T10:43:26.108Z,104.63
2022-12-12T10:46:01.372Z,19.67
2022-12-12T10:48:30.585Z,15.60
2022-12-12T10:51:01.157Z,14.60
2022-12-12T10:53:30.901Z,16.93
2022-12-12T10:56:01.189Z,15.00
2022-12-12T10:58:37.983Z,14.77
2022-12-12T11:01:12.153Z,20.50
2022-12-12T11:03:42.665Z,16.00
2022-12-12T11:06:16.455Z,17.63
2022-12-12T11:08:54.989Z,14.77
2022-12-12T11:11:24.102Z,14.70
2022-12-12T11:13:54.810Z,14.57
2022-12-12T11:16:24.403Z,14.33
2022-12-12T11:19:05.095Z,13.07
2022-12-12T11:21:34.657Z,14.80
2022-12-12T11:24:06.671Z,17.80
2022-12-12T11:26:40.742Z,16.50
2022-12-12T11:29:23.006Z,17.63
2022-12-12T11:31:51.540Z,18.67
2022-12-12T11:34:20.502Z,17.83
2022-12-12T11:36:49.071Z,19.00
2022-12-12T11:39:19.912Z,20.23
2022-12-12T11:42:02.018Z,18.20
2022-12-12T11:44:35.339Z,21.87
2022-12-12T11:47:18.572Z,24.77
2022-12-12T11:49:48.197Z,18.00
2022-12-12T11:52:20.372Z,24.03
2022-12-12T11:54:49.081Z,23.93
2022-12-12T11:57:21.063Z,22.90
2022-12-12T11:59:55.886Z,21.40
2022-12-12T12:02:53.456Z,21.23
2022-12-12T12:05:26.996Z,19.97
2022-12-12T12:08:11.758Z,21.83
2022-12-12T12:10:44.782Z,20.93
2022-12-12T12:13:18.625Z,23.20
2022-12-12T12:15:51.325Z,23.07
2022-12-12T12:18:29.658Z,24.40
2022-12-12T12:21:07.162Z,25.50
2022-12-12T12:23:42.600Z,28.73
2022-12-12T12:26:15.740Z,32.70
2022-12-12T12:29:02.049Z,31.33
2022-12-12T12:31:37.305Z,31.03
2022-12-12T12:34:10.527Z,31.37
2022-12-12T12:36:45.464Z,27.60
2022-12-12T12:39:19.290Z,36.00
2022-12-12T12:42:00.282Z,31.47
2022-12-12T12:44:33.191Z,27.63
2022-12-12T12:47:09.335Z,23.90
2022-12-12T12:49:40.796Z,28.97
2022-12-12T12:52:11.948Z,22.23
2022-12-12T12:54:41.378Z,21.20
2022-12-12T12:57:16.608Z,26.30
2022-12-12T12:59:47.258Z,30.17
2022-12-12T13:02:26.716Z,30.00
2022-12-12T13:04:59.090Z,24.63
2022-12-12T13:07:31.513Z,23.47
2022-12-12T13:10:02.935Z,23.47
2022-12-12T13:12:32.343Z,21.70
2022-12-12T13:15:02.837Z,20.87
2022-12-12T13:17:39.075Z,20.60
2022-12-12T13:20:12.013Z,22.60
2022-12-12T13:22:48.991Z,21.90
2022-12-12T13:25:23.314Z,20.97
2022-12-12T13:27:54.819Z,30.10
2022-12-12T13:30:24.295Z,38.07
2022-12-12T13:33:07.578Z,25.27
2022-12-12T13:35:38.633Z,19.30
2022-12-12T13:38:07.040Z,17.40
2022-12-12T13:40:40.628Z,19.63
2022-12-12T13:43:10.490Z,20.10
2022-12-12T13:45:43.962Z,17.97
2022-12-12T13:48:44.528Z,30.13
2022-12-12T13:51:35.951Z,21.63
2022-12-12T13:54:22.830Z,26.57
2022-12-12T13:57:07.409Z,19.17
2022-12-12T13:59:59.182Z,23.10
2022-12-12T14:02:32.424Z,48.87
2022-12-12T14:05:10.394Z,26.47
2022-12-12T14:07:40.805Z,27.93
2022-12-12T14:10:19.206Z,31.13
2022-12-12T14:12:47.667Z,38.70
2022-12-12T14:15:23.638Z,33.80
2022-12-12T14:17:54.809Z,38.67
2022-12-12T14:20:26.919Z,25.50
2022-12-12T14:23:25.569Z,33.93
2022-12-12T14:25:55.465Z,37.87
2022-12-12T14:28:26.086Z,29.60
2022-12-12T14:30:57.381Z,19.70
2022-12-12T14:33:49.494Z,16.90
2022-12-12T14:36:30.436Z,18.60
2022-12-12T14:39:05.186Z,23.83
2022-12-12T14:41:36.393Z,19.63
2022-12-12T14:44:35.686Z,54.33
2022-12-12T14:47:00.220Z,26.37
2022-12-12T14:49:28.614Z,22.60
2022-12-12T14:51:59.267Z,21.10
2022-12-12T14:54:28.382Z,18.50
2022-12-12T14:56:59.690Z,18.13
2022-12-12T14:59:29.372Z,18.53
2022-12-12T15:01:58.946Z,22.20
2022-12-12T15:04:29.104Z,17.80
2022-12-12T15:06:58.438Z,17.40
2022-12-12T15:09:29.507Z,30.13
2022-12-12T15:12:13.787Z,25.43
2022-12-12T15:14:42.957Z,25.17
2022-12-12T15:17:15.446Z,23.97
2022-12-12T15:19:45.081Z,31.03
2022-12-12T15:22:16.035Z,38.70
2022-12-12T15:24:44.456Z,66.23
2022-12-12T15:27:19.590Z,51.40
2022-12-12T15:29:48.028Z,35.00
2022-12-12T15:32:19.593Z,57.33
2022-12-12T15:34:48.876Z,30.63
2022-12-12T15:37:21.840Z,22.43
2022-12-12T15:40:18.643Z,22.03
2022-12-12T15:42:49.367Z,21.43
2022-12-12T15:45:20.017Z,21.87
2022-12-12T15:47:48.533Z,19.13
2022-12-12T15:50:18.467Z,20.33
2022-12-12T15:52:47.682Z,18.90
2022-12-12T15:55:20.334Z,22.47
2022-12-12T15:57:51.474Z,22.43
2022-12-12T16:00:30.296Z,25.83
2022-12-12T16:02:59.417Z,25.00
2022-12-12T16:05:31.326Z,24.37
2022-12-12T16:08:14.687Z,21.73
2022-12-12T16:10:52.312Z,23.30
2022-12-12T16:13:26.355Z,24.53
2022-12-12T16:15:54.801Z,24.47
2022-12-12T16:18:25.191Z,19.67
2022-12-12T16:20:54.932Z,17.23
2022-12-12T16:23:28.571Z,22.63
2022-12-12T16:25:57.043Z,27.00
2022-12-12T16:28:28.796Z,27.43
2022-12-12T16:30:58.570Z,25.93
2022-12-12T16:33:31.435Z,29.73
2022-12-12T16:36:01.061Z,25.90
2022-12-12T16:38:29.752Z,21.77
2022-12-12T16:40:59.781Z,28.27
2022-12-12T16:43:29.606Z,24.37
2022-12-12T16:45:58.544Z,27.63
2022-12-12T16:48:28.082Z,28.03
2022-12-12T16:50:58.490Z,23.57
2022-12-12T16:53:27.231Z,23.57
2022-12-12T16:55:55.763Z,22.40
2022-12-12T16:58:24.434Z,24.73
2022-12-12T17:00:55.133Z,21.30
2022-12-12T17:03:24.536Z,22.73
2022-12-12T17:05:53.313Z,21.80
2022-12-12T17:08:21.942Z,27.37
2022-12-12T17:10:52.332Z,30.23
2022-12-12T17:13:38.136Z,26.10
2022-12-12T17:16:08.357Z,29.93
2022-12-12T17:18:36.801Z,32.67
2022-12-12T17:21:05.362Z,29.90
2022-12-12T17:23:33.781Z,29.77
2022-12-12T17:26:04.567Z,28.03
2022-12-12T17:28:33.634Z,30.70
2022-12-12T17:31:02.079Z,27.47
2022-12-12T17:33:31.898Z,29.70
2022-12-12T17:36:01.159Z,33.97
2022-12-12T17:38:30.545Z,36.40
2022-12-12T17:40:59.302Z,41.73
2022-12-12T17:43:28.006Z,51.93
2022-12-12T17:46:00.433Z,43.57
2022-12-12T17:48:30.028Z,44.80
2022-12-12T17:51:01.173Z,34.80
2022-12-12T17:53:32.547Z,28.97
2022-12-12T17:56:07.813Z,31.23
2022-12-12T17:58:37.416Z,29.87
2022-12-12T18:01:10.882Z,31.13
2022-12-12T18:03:39.402Z,30.37
2022-12-12T18:06:09.311Z,27.07
2022-12-12T18:08:37.728Z,28.70
2022-12-12T18:11:07.771Z,27.87
2022-12-12T18:13:36.298Z,31.80
2022-12-12T18:16:04.791Z,35.07
2022-12-12T18:18:34.193Z,35.10
2022-12-12T18:21:04.708Z,30.87
2022-12-12T18:23:34.933Z,30.03
2022-12-12T18:26:06.630Z,30.30
2022-12-12T18:28:35.219Z,34.73
2022-12-12T18:31:03.672Z,26.10
2022-12-12T18:33:32.489Z,29.07
2022-12-12T18:36:02.056Z,27.53
2022-12-12T18:38:30.873Z,28.47
2022-12-12T18:41:00.753Z,33.03
2022-12-12T18:43:29.377Z,28.20
2022-12-12T18:45:58.334Z,29.30
2022-12-12T18:48:26.735Z,32.00
2022-12-12T18:50:55.201Z,32.50
2022-12-12T18:53:23.614Z,28.27
2022-12-12T18:55:51.969Z,33.00
2022-12-12T18:58:21.741Z,33.43
2022-12-12T19:00:50.172Z,35.77
2022-12-12T19:03:18.652Z,38.23
2022-12-12T19:05:47.069Z,41.37
2022-12-12T19:08:15.518Z,38.03
2022-12-12T19:10:46.417Z,37.70
2022-12-12T19:13:14.795Z,38.73
2022-12-12T19:15:44.549Z,37.70
2022-12-12T19:18:12.964Z,41.57
2022-12-12T19:20:41.368Z,41.90
2022-12-12T19:23:09.833Z,37.97
2022-12-12T19:25:42.801Z,44.67
2022-12-12T19:28:12.571Z,40.67
2022-12-12T19:30:41.635Z,41.60
2022-12-12T19:33:11.436Z,35.07
2022-12-12T19:35:39.948Z,39.40
2022-12-12T19:38:08.342Z,37.97
2022-12-12T19:40:36.793Z,39.57
2022-12-12T19:43:05.237Z,38.33
2022-12-12T19:45:33.690Z,36.37
2022-12-12T19:48:02.110Z,35.50
2022-12-12T19:50:31.980Z,34.50
2022-12-12T19:53:00.478Z,35.30
2022-12-12T19:55:28.958Z,226.33
2022-12-12T19:57:57.382Z,96.80
2022-12-12T20:00:26.048Z,65.00
2022-12-12T20:02:54.554Z,33.77
2022-12-12T20:05:23.000Z,26.43
2022-12-12T20:07:52.833Z,27.23
2022-12-12T20:10:21.385Z,29.43
2022-12-12T20:12:58.131Z,26.07
2022-12-12T20:15:27.069Z,32.67
2022-12-12T20:17:56.399Z,33.87
2022-12-12T20:20:24.763Z,30.53
2022-12-12T20:22:54.598Z,33.33
2022-12-12T20:25:22.992Z,32.33
2022-12-12T20:27:51.395Z,29.23
2022-12-12T20:30:19.941Z,33.27
2022-12-12T20:32:48.696Z,42.87
2022-12-12T20:35:17.169Z,41.67
2022-12-12T20:37:45.575Z,42.07
2022-12-12T20:40:15.890Z,37.73
2022-12-12T20:42:50.311Z,44.47
2022-12-12T20:45:22.649Z,58.70
2022-12-12T20:47:51.025Z,46.70
2022-12-12T20:50:19.407Z,39.83
2022-12-12T20:52:47.865Z,50.33
2022-12-12T20:55:17.961Z,42.47
2022-12-12T20:57:46.344Z,46.33
2022-12-12T21:00:15.465Z,56.03
2022-12-12T21:02:44.218Z,57.73
2022-12-12T21:05:12.999Z,51.33
2022-12-12T21:07:41.737Z,61.07
2022-12-12T21:10:10.695Z,156.23
2022-12-12T21:12:40.479Z,52.17
2022-12-12T21:15:09.485Z,47.23
2022-12-12T21:17:37.878Z,69.60
2022-12-12T21:20:07.137Z,56.13
2022-12-12T21:22:35.743Z,55.07
2022-12-12T21:25:04.167Z,34.50
2022-12-12T21:27:33.170Z,24.80
2022-12-12T21:30:02.939Z,30.60
2022-12-12T21:32:31.324Z,29.97
2022-12-12T21:34:59.710Z,27.90
2022-12-12T21:37:28.117Z,27.13
2022-12-12T21:39:56.510Z,26.60
2022-12-12T21:42:24.898Z,25.60
2022-12-12T21:44:53.280Z,30.07
2022-12-12T21:47:23.573Z,34.67
2022-12-12T21:49:52.012Z,32.20
2022-12-12T21:52:21.389Z,32.07
2022-12-12T21:54:49.801Z,37.00
2022-12-12T21:57:24.514Z,38.13
2022-12-12T21:59:53.295Z,32.77
2022-12-12T22:02:23.117Z,39.40
2022-12-12T22:04:51.497Z,41.67
2022-12-12T22:07:20.889Z,37.57
2022-12-12T22:10:10.540Z,41.43
2022-12-12T22:12:37.818Z,44.40
2022-12-12T22:15:06.788Z,37.10
2022-12-12T22:17:36.644Z,38.70
2022-12-12T22:20:05.282Z,40.27
2022-12-12T22:22:33.875Z,33.53
2022-12-12T22:25:02.382Z,32.53
2022-12-12T22:27:31.054Z,39.83
2022-12-12T22:29:59.532Z,38.47
2022-12-12T22:32:29.395Z,37.73
2022-12-12T22:34:59.459Z,34.47
2022-12-12T22:37:27.893Z,34.87
2022-12-12T22:39:56.307Z,35.20
2022-12-12T22:42:24.747Z,38.33
2022-12-12T22:44:53.450Z,35.10
2022-12-12T22:47:23.812Z,33.83
2022-12-12T22:49:52.223Z,82.67
2022-12-12T22:52:22.030Z,63.90
2022-12-12T22:54:50.427Z,35.53
2022-12-12T22:57:18.833Z,38.33
2022-12-12T22:59:47.211Z,39.33
2022-12-12T23:02:20.150Z,55.50
2022-12-12T23:04:51.734Z,36.30
2022-12-12T23:07:20.235Z,103.63
2022-12-12T23:09:53.462Z,49.00
2022-12-12T23:12:22.634Z,45.60
2022-12-12T23:14:51.004Z,44.37
2022-12-12T23:17:19.365Z,40.87
2022-12-12T23:19:47.830Z,46.47
2022-12-12T23:22:16.515Z,41.87
2022-12-12T23:24:45.010Z,42.17
2022-12-12T23:27:14.786Z,42.53
2022-12-12T23:29:43.301Z,85.73
2022-12-12T23:32:11.724Z,76.37
2022-12-12T23:34:40.124Z,74.87
2022-12-12T23:37:09.356Z,58.60
2022-12-12T23:39:37.767Z,48.90
2022-12-12T23:42:06.312Z,48.30
2022-12-12T23:44:36.098Z,48.23
2022-12-12T23:47:04.543Z,47.97
2022-12-12T23:49:33.020Z,55.03
2022-12-12T23:52:02.460Z,57.60
2022-12-12T23:54:32.563Z,55.70
2022-12-12T23:57:01.005Z,54.40
2022-12-12T23:59:29.640Z,51.17
